createdAt,value
2023-05-22T00:01:45.298Z,18.53
2023-05-22T00:04:13.542Z,23.60
2023-05-22T00:06:42.997Z,23.80
2023-05-22T00:09:09.547Z,17.43
2023-05-22T00:11:37.069Z,23.83
2023-05-22T00:14:03.670Z,27.87
2023-05-22T00:16:30.216Z,29.27
2023-05-22T00:18:57.388Z,21.43
2023-05-22T00:21:24.716Z,21.10
2023-05-22T00:23:51.239Z,23.77
2023-05-22T00:26:17.982Z,21.73
2023-05-22T00:28:44.554Z,23.23
2023-05-22T00:31:11.294Z,22.70
2023-05-22T00:33:37.965Z,20.90
2023-05-22T00:36:05.325Z,23.00
2023-05-22T00:38:33.703Z,23.43
2023-05-22T00:41:01.322Z,24.77
2023-05-22T00:43:28.194Z,25.10
2023-05-22T00:45:54.941Z,27.57
2023-05-22T00:48:22.248Z,22.00
2023-05-22T00:50:50.093Z,24.00
2023-05-22T00:53:19.706Z,23.17
2023-05-22T00:55:46.448Z,27.87
2023-05-22T00:58:18.705Z,27.47
2023-05-22T01:00:46.725Z,22.00
2023-05-22T01:03:14.224Z,25.73
2023-05-22T01:05:41.789Z,20.97
2023-05-22T01:08:09.333Z,20.57
2023-05-22T01:10:37.373Z,25.83
2023-05-22T01:13:10.000Z,17.90
2023-05-22T01:15:46.034Z,23.17
2023-05-22T01:18:32.448Z,19.03
2023-05-22T01:21:18.560Z,21.57
2023-05-22T01:24:00.426Z,20.70
2023-05-22T01:26:44.965Z,26.93
2023-05-22T01:29:28.929Z,23.63
2023-05-22T01:31:58.497Z,25.93
2023-05-22T01:34:26.062Z,26.07
2023-05-22T01:36:53.594Z,21.23
2023-05-22T01:39:20.613Z,26.03
2023-05-22T01:41:47.476Z,25.53
2023-05-22T01:44:14.995Z,24.07
2023-05-22T01:46:41.512Z,21.87
2023-05-22T01:49:09.265Z,20.97
2023-05-22T01:51:44.109Z,32.40
2023-05-22T01:54:18.394Z,19.60
2023-05-22T01:56:48.945Z,22.93
2023-05-22T01:59:42.092Z,21.60
2023-05-22T02:02:11.049Z,19.83
2023-05-22T02:04:39.856Z,31.80
2023-05-22T02:07:07.228Z,29.30
2023-05-22T02:09:34.052Z,17.67
2023-05-22T02:12:01.124Z,22.10
2023-05-22T02:14:28.414Z,21.07
2023-05-22T02:16:55.116Z,20.90
2023-05-22T02:19:21.765Z,23.20
2023-05-22T02:21:48.572Z,28.03
2023-05-22T02:24:15.215Z,28.37
2023-05-22T02:26:42.697Z,26.50
2023-05-22T02:29:09.419Z,21.43
2023-05-22T02:31:35.977Z,24.93
2023-05-22T02:34:05.440Z,23.27
2023-05-22T02:36:33.266Z,24.10
2023-05-22T02:39:00.529Z,20.23
2023-05-22T02:41:27.456Z,26.20
2023-05-22T02:43:54.085Z,23.47
2023-05-22T02:46:20.880Z,24.07
2023-05-22T02:48:47.696Z,21.50
2023-05-22T02:51:14.509Z,26.90
2023-05-22T02:53:41.612Z,20.73
2023-05-22T02:56:09.000Z,26.87
2023-05-22T02:58:35.940Z,21.60
2023-05-22T03:01:03.813Z,25.73
2023-05-22T03:03:31.616Z,21.53
2023-05-22T03:05:58.582Z,22.80
2023-05-22T03:08:28.380Z,24.47
2023-05-22T03:10:56.747Z,18.63
2023-05-22T03:13:23.378Z,19.93
2023-05-22T03:15:49.940Z,26.07
2023-05-22T03:18:16.704Z,33.83
2023-05-22T03:20:43.593Z,25.60
2023-05-22T03:23:12.072Z,19.67
2023-05-22T03:25:38.634Z,18.33
2023-05-22T03:28:05.412Z,31.03
2023-05-22T03:30:31.996Z,20.10
2023-05-22T03:32:58.912Z,20.40
2023-05-22T03:35:25.697Z,18.63
2023-05-22T03:37:52.379Z,22.27
2023-05-22T03:40:18.959Z,21.13
2023-05-22T03:42:45.793Z,23.53
2023-05-22T03:45:12.760Z,24.73
2023-05-22T03:47:39.498Z,24.50
2023-05-22T03:50:06.393Z,28.03
2023-05-22T03:52:33.010Z,27.77
2023-05-22T03:55:00.211Z,28.07
2023-05-22T03:57:26.742Z,22.97
2023-05-22T03:59:53.438Z,23.27
2023-05-22T04:02:20.299Z,21.37
2023-05-22T04:04:47.415Z,24.80
2023-05-22T04:07:14.161Z,22.00
2023-05-22T04:09:41.538Z,27.03
2023-05-22T04:12:08.708Z,26.07
2023-05-22T04:14:35.388Z,23.30
2023-05-22T04:17:02.050Z,20.13
2023-05-22T04:19:30.147Z,22.87
2023-05-22T04:21:58.334Z,21.03
2023-05-22T04:24:25.600Z,24.47
2023-05-22T04:26:52.127Z,24.93
2023-05-22T04:29:22.303Z,28.40
2023-05-22T04:31:48.907Z,18.90
2023-05-22T04:34:16.196Z,21.17
2023-05-22T04:36:45.305Z,23.63
2023-05-22T04:39:13.998Z,25.70
2023-05-22T04:41:41.000Z,27.23
2023-05-22T04:44:07.973Z,25.23
2023-05-22T04:46:36.085Z,20.13
2023-05-22T04:49:03.322Z,18.03
2023-05-22T04:51:31.418Z,19.93
2023-05-22T04:53:58.518Z,21.17
2023-05-22T04:56:35.365Z,23.50
2023-05-22T04:59:04.901Z,23.10
2023-05-22T05:01:33.219Z,20.53
2023-05-22T05:04:00.841Z,21.40
2023-05-22T05:06:27.537Z,23.27
2023-05-22T05:08:55.085Z,21.20
2023-05-22T05:11:21.730Z,27.43
2023-05-22T05:13:48.453Z,27.07
2023-05-22T05:16:15.033Z,30.37
2023-05-22T05:18:41.833Z,21.77
2023-05-22T05:21:08.999Z,29.13
2023-05-22T05:23:36.352Z,25.13
2023-05-22T05:26:02.965Z,20.83
2023-05-22T05:28:29.506Z,27.63
2023-05-22T05:30:57.814Z,21.17
2023-05-22T05:33:24.454Z,20.90
2023-05-22T05:35:52.789Z,16.93
2023-05-22T05:38:19.506Z,23.43
2023-05-22T05:40:46.163Z,19.93
2023-05-22T05:43:15.216Z,28.97
2023-05-22T05:45:42.651Z,26.10
2023-05-22T05:48:09.441Z,18.30
2023-05-22T05:50:36.239Z,23.97
2023-05-22T05:53:02.909Z,17.50
2023-05-22T05:55:29.571Z,19.80
2023-05-22T05:57:56.304Z,25.17
2023-05-22T06:00:23.299Z,27.67
2023-05-22T06:02:50.849Z,32.77
2023-05-22T06:05:19.573Z,22.30
2023-05-22T06:07:46.429Z,19.83
2023-05-22T06:10:13.130Z,34.93
2023-05-22T06:12:39.928Z,25.63
2023-05-22T06:15:13.314Z,20.63
2023-05-22T06:17:39.983Z,18.40
2023-05-22T06:20:07.489Z,21.13
2023-05-22T06:22:34.176Z,18.50
2023-05-22T06:25:00.938Z,18.37
2023-05-22T06:27:27.805Z,20.37
2023-05-22T06:29:56.341Z,24.73
2023-05-22T06:32:23.249Z,21.30
2023-05-22T06:34:49.958Z,23.80
2023-05-22T06:37:16.968Z,19.53
2023-05-22T06:39:43.580Z,20.47
2023-05-22T06:42:10.299Z,18.50
2023-05-22T06:44:36.966Z,18.23
2023-05-22T06:47:03.662Z,23.13
2023-05-22T06:49:30.280Z,18.20
2023-05-22T06:51:57.207Z,19.80
2023-05-22T06:54:23.989Z,22.53
2023-05-22T06:56:50.605Z,18.70
2023-05-22T06:59:17.521Z,19.97
2023-05-22T07:01:44.322Z,23.60
2023-05-22T07:04:13.207Z,24.83
2023-05-22T07:06:41.856Z,17.80
2023-05-22T07:09:09.042Z,18.23
2023-05-22T07:11:38.374Z,23.00
2023-05-22T07:14:05.081Z,25.13
2023-05-22T07:16:31.872Z,23.97
2023-05-22T07:18:58.660Z,26.07
2023-05-22T07:21:25.499Z,20.90
2023-05-22T07:23:52.442Z,27.67
2023-05-22T07:26:19.392Z,23.87
2023-05-22T07:28:46.328Z,18.23
2023-05-22T07:31:12.902Z,27.43
2023-05-22T07:33:39.608Z,29.30
2023-05-22T07:36:06.578Z,24.90
2023-05-22T07:38:33.384Z,19.50
2023-05-22T07:40:59.894Z,21.53
2023-05-22T07:43:26.697Z,15.07
2023-05-22T07:45:54.348Z,17.83
2023-05-22T07:48:21.376Z,17.70
2023-05-22T07:50:48.110Z,15.83
2023-05-22T07:53:15.915Z,22.60
2023-05-22T07:55:42.564Z,23.60
2023-05-22T07:58:10.838Z,16.83
2023-05-22T08:00:37.497Z,21.70
2023-05-22T08:03:04.565Z,15.37
2023-05-22T08:05:31.290Z,22.13
2023-05-22T08:07:57.878Z,22.27
2023-05-22T08:10:24.681Z,17.00
2023-05-22T08:12:52.118Z,18.10
2023-05-22T08:15:18.717Z,18.50
2023-05-22T08:17:45.722Z,19.23
2023-05-22T08:20:13.170Z,16.10
2023-05-22T08:22:40.509Z,16.20
2023-05-22T08:25:07.360Z,20.13
2023-05-22T08:27:33.987Z,18.90
2023-05-22T08:30:01.539Z,19.70
2023-05-22T08:32:29.344Z,19.10
2023-05-22T08:34:57.972Z,18.53
2023-05-22T08:37:24.525Z,15.83
2023-05-22T08:39:51.315Z,18.70
2023-05-22T08:42:17.889Z,19.27
2023-05-22T08:44:44.616Z,20.80
2023-05-22T08:47:14.066Z,19.33
2023-05-22T08:49:41.285Z,22.23
2023-05-22T08:52:10.914Z,20.07
2023-05-22T08:54:43.668Z,15.53
2023-05-22T08:57:10.677Z,20.60
2023-05-22T08:59:38.623Z,18.60
2023-05-22T09:02:06.970Z,20.93
2023-05-22T09:04:33.866Z,16.40
2023-05-22T09:07:06.047Z,17.53
2023-05-22T09:09:36.881Z,13.80
2023-05-22T09:12:06.458Z,15.13
2023-05-22T09:14:52.236Z,16.90
2023-05-22T09:17:21.020Z,17.53
2023-05-22T09:19:48.078Z,20.00
2023-05-22T09:22:14.849Z,16.17
2023-05-22T09:24:42.501Z,12.80
2023-05-22T09:27:10.598Z,20.07
2023-05-22T09:29:55.380Z,16.00
2023-05-22T09:32:22.126Z,21.03
2023-05-22T09:34:49.406Z,13.90
2023-05-22T09:37:19.056Z,13.60
2023-05-22T09:39:46.991Z,14.47
2023-05-22T09:42:17.733Z,16.00
2023-05-22T09:44:48.976Z,12.20
2023-05-22T09:47:15.704Z,11.47
2023-05-22T09:49:43.859Z,17.60
2023-05-22T09:52:12.712Z,12.63
2023-05-22T09:54:47.561Z,12.30
2023-05-22T09:57:17.292Z,14.17
2023-05-22T09:59:44.946Z,15.40
2023-05-22T10:02:13.486Z,19.93
2023-05-22T10:04:41.195Z,18.10
2023-05-22T10:07:08.370Z,16.03
2023-05-22T10:09:35.872Z,16.83
2023-05-22T10:12:05.743Z,13.13
2023-05-22T10:14:32.672Z,10.77
2023-05-22T10:17:03.175Z,13.30
2023-05-22T10:19:32.825Z,10.30
2023-05-22T10:22:00.885Z,11.60
2023-05-22T10:24:27.579Z,15.27
2023-05-22T10:26:54.732Z,17.27
2023-05-22T10:29:25.939Z,13.00
2023-05-22T10:32:04.737Z,13.07
2023-05-22T10:35:24.207Z,19.47
2023-05-22T10:37:53.669Z,14.90
2023-05-22T10:40:33.030Z,12.03
2023-05-22T10:43:01.051Z,16.13
2023-05-22T10:45:32.023Z,13.30
2023-05-22T10:48:21.792Z,12.63
2023-05-22T10:50:53.042Z,15.50
2023-05-22T10:53:23.097Z,13.93
2023-05-22T10:55:54.753Z,15.07
2023-05-22T10:58:31.913Z,17.70
2023-05-22T11:01:17.677Z,17.20
2023-05-22T11:04:11.867Z,15.83
2023-05-22T11:06:45.943Z,19.93
2023-05-22T11:09:31.784Z,14.83
2023-05-22T11:12:24.655Z,13.97
2023-05-22T11:15:10.723Z,15.77
2023-05-22T11:17:42.722Z,13.10
2023-05-22T11:20:25.624Z,12.23
2023-05-22T11:23:01.772Z,17.40
2023-05-22T11:25:28.925Z,15.53
2023-05-22T11:27:56.173Z,12.30
2023-05-22T11:30:26.758Z,13.57
2023-05-22T11:32:53.417Z,14.13
2023-05-22T11:35:21.846Z,18.80
2023-05-22T11:37:50.852Z,9.70
2023-05-22T11:40:21.031Z,9.60
2023-05-22T11:42:48.181Z,11.10
2023-05-22T11:45:14.964Z,9.80
2023-05-22T11:47:42.111Z,10.10
2023-05-22T11:50:09.325Z,12.63
2023-05-22T11:52:37.498Z,11.40
2023-05-22T11:55:05.630Z,17.47
2023-05-22T11:57:32.512Z,19.90
2023-05-22T11:59:59.490Z,9.10
2023-05-22T12:02:26.745Z,14.40
2023-05-22T12:04:57.357Z,7.97
2023-05-22T12:07:25.374Z,20.50
2023-05-22T12:09:52.409Z,13.07
2023-05-22T12:12:22.339Z,13.80
2023-05-22T12:14:49.505Z,9.47
2023-05-22T12:17:17.471Z,12.33
2023-05-22T12:19:44.567Z,12.20
2023-05-22T12:22:11.881Z,12.83
2023-05-22T12:24:48.526Z,11.03
2023-05-22T12:27:15.630Z,9.33
2023-05-22T12:29:43.020Z,14.00
2023-05-22T12:32:11.685Z,11.53
2023-05-22T12:34:47.678Z,13.30
2023-05-22T12:37:25.980Z,11.83
2023-05-22T12:39:59.189Z,12.40
2023-05-22T12:42:26.635Z,11.57
2023-05-22T12:44:54.494Z,14.00
2023-05-22T12:47:22.295Z,9.13
2023-05-22T12:49:49.067Z,9.63
2023-05-22T12:52:15.621Z,14.13
2023-05-22T12:54:42.266Z,18.73
2023-05-22T12:57:09.422Z,10.47
2023-05-22T12:59:37.222Z,11.03
2023-05-22T13:02:06.982Z,14.23
2023-05-22T13:04:34.100Z,16.77
2023-05-22T13:07:00.747Z,14.67
2023-05-22T13:09:27.383Z,13.00
2023-05-22T13:11:54.185Z,13.87
2023-05-22T13:14:21.441Z,12.80
2023-05-22T13:16:47.960Z,11.80
2023-05-22T13:19:14.516Z,11.93
2023-05-22T13:21:41.379Z,8.67
2023-05-22T13:24:08.392Z,12.83
2023-05-22T13:26:35.139Z,13.57
2023-05-22T13:29:01.796Z,18.03
2023-05-22T13:31:28.491Z,9.77
2023-05-22T13:33:55.203Z,9.33
2023-05-22T13:36:21.928Z,12.37
2023-05-22T13:38:48.640Z,13.70
2023-05-22T13:41:15.663Z,13.47
2023-05-22T13:43:42.449Z,10.97
2023-05-22T13:46:09.080Z,10.27
2023-05-22T13:48:35.808Z,12.90
2023-05-22T13:51:02.877Z,11.93
2023-05-22T13:53:29.437Z,14.60
2023-05-22T13:55:56.024Z,9.57
2023-05-22T13:58:22.633Z,11.53
2023-05-22T14:00:49.346Z,10.53
2023-05-22T14:03:17.893Z,12.43
2023-05-22T14:05:45.139Z,12.33
2023-05-22T14:08:11.802Z,13.73
2023-05-22T14:10:38.867Z,14.37
2023-05-22T14:13:05.554Z,11.80
2023-05-22T14:15:34.229Z,10.57
2023-05-22T14:18:02.861Z,18.33
2023-05-22T14:20:29.471Z,16.93
2023-05-22T14:22:58.746Z,10.37
2023-05-22T14:25:26.368Z,9.50
2023-05-22T14:27:53.094Z,16.30
2023-05-22T14:30:19.770Z,9.83
2023-05-22T14:32:47.085Z,13.50
2023-05-22T14:35:13.887Z,12.50
2023-05-22T14:37:40.562Z,13.60
2023-05-22T14:40:07.931Z,11.23
2023-05-22T14:42:35.321Z,14.00
2023-05-22T14:45:01.846Z,12.03
2023-05-22T14:47:28.475Z,13.50
2023-05-22T14:49:57.689Z,13.20
2023-05-22T14:52:29.566Z,8.03
2023-05-22T14:54:56.295Z,10.67
2023-05-22T14:57:22.844Z,7.53
2023-05-22T14:59:49.530Z,17.33
2023-05-22T15:02:16.449Z,8.63
2023-05-22T15:04:44.916Z,10.67
2023-05-22T15:07:12.128Z,15.93
2023-05-22T15:09:38.824Z,11.77
2023-05-22T15:12:06.092Z,17.10
2023-05-22T15:14:32.657Z,12.60
2023-05-22T15:16:59.761Z,7.97
2023-05-22T15:19:26.622Z,9.03
2023-05-22T15:21:54.615Z,13.63
2023-05-22T15:24:22.215Z,14.57
2023-05-22T15:26:48.924Z,8.77
2023-05-22T15:29:16.021Z,15.90
2023-05-22T15:31:42.691Z,16.10
2023-05-22T15:34:09.523Z,15.00
2023-05-22T15:36:40.477Z,10.70
2023-05-22T15:39:07.180Z,10.50
2023-05-22T15:41:33.900Z,18.13
2023-05-22T15:44:00.430Z,14.57
2023-05-22T15:46:27.162Z,11.23
2023-05-22T15:48:54.470Z,22.63
2023-05-22T15:51:21.231Z,15.60
2023-05-22T15:53:47.881Z,13.90
2023-05-22T15:56:14.581Z,12.57
2023-05-22T15:58:41.109Z,12.90
2023-05-22T16:01:08.374Z,13.10
2023-05-22T16:03:35.012Z,10.00
2023-05-22T16:06:01.686Z,9.90
2023-05-22T16:08:28.847Z,9.23
2023-05-22T16:10:59.016Z,18.73
2023-05-22T16:13:25.716Z,13.33
2023-05-22T16:15:52.429Z,10.53
2023-05-22T16:18:21.614Z,12.80
2023-05-22T16:20:48.220Z,12.03
2023-05-22T16:23:14.783Z,9.83
2023-05-22T16:25:41.558Z,11.87
2023-05-22T16:28:08.440Z,13.63
2023-05-22T16:30:35.387Z,15.90
2023-05-22T16:33:01.976Z,11.20
2023-05-22T16:35:29.606Z,11.73
2023-05-22T16:37:56.171Z,12.57
2023-05-22T16:40:22.917Z,15.17
2023-05-22T16:42:50.756Z,12.67
2023-05-22T16:45:18.386Z,12.57
2023-05-22T16:47:44.923Z,16.47
2023-05-22T16:50:11.815Z,14.23
2023-05-22T16:52:38.456Z,10.23
2023-05-22T16:55:05.513Z,12.53
2023-05-22T16:57:32.217Z,17.80
2023-05-22T16:59:59.108Z,13.53
2023-05-22T17:02:26.236Z,12.00
2023-05-22T17:04:53.353Z,14.63
2023-05-22T17:07:19.993Z,11.47
2023-05-22T17:09:46.741Z,11.97
2023-05-22T17:12:13.266Z,13.83
2023-05-22T17:14:39.890Z,14.67
2023-05-22T17:17:07.073Z,19.00
2023-05-22T17:19:34.014Z,10.77
2023-05-22T17:22:00.776Z,13.47
2023-05-22T17:24:27.999Z,13.40
2023-05-22T17:26:54.693Z,12.67
2023-05-22T17:29:21.628Z,13.87
2023-05-22T17:31:48.574Z,11.37
2023-05-22T17:34:15.187Z,9.53
2023-05-22T17:36:44.595Z,14.47
2023-05-22T17:39:11.485Z,17.40
2023-05-22T17:41:38.494Z,25.80
2023-05-22T17:44:05.168Z,20.23
2023-05-22T17:46:32.294Z,14.83
2023-05-22T17:48:59.008Z,15.40
2023-05-22T17:51:25.830Z,20.13
2023-05-22T17:53:56.076Z,13.60
2023-05-22T17:56:23.787Z,15.83
2023-05-22T17:58:50.883Z,15.00
2023-05-22T18:01:18.301Z,15.73
2023-05-22T18:03:46.076Z,12.67
2023-05-22T18:06:13.473Z,15.23
2023-05-22T18:08:40.138Z,15.43
2023-05-22T18:11:06.715Z,16.33
2023-05-22T18:13:33.391Z,14.77
2023-05-22T18:16:03.747Z,18.27
2023-05-22T18:18:30.573Z,16.23
2023-05-22T18:21:04.507Z,19.17
2023-05-22T18:23:31.085Z,20.60
2023-05-22T18:25:57.638Z,18.00
2023-05-22T18:28:26.714Z,16.70
2023-05-22T18:30:56.420Z,17.00
2023-05-22T18:33:24.850Z,16.83
2023-05-22T18:35:51.499Z,24.97
2023-05-22T18:38:18.230Z,19.67
2023-05-22T18:40:44.855Z,30.93
2023-05-22T18:43:11.871Z,29.93
2023-05-22T18:45:38.438Z,19.00
2023-05-22T18:48:05.101Z,17.97
2023-05-22T18:50:32.064Z,22.40
2023-05-22T18:52:58.721Z,17.80
2023-05-22T18:55:25.350Z,18.90
2023-05-22T18:57:51.994Z,15.30
2023-05-22T19:00:18.592Z,34.30
2023-05-22T19:02:45.308Z,23.93
2023-05-22T19:05:11.995Z,18.73
2023-05-22T19:07:38.767Z,23.33
2023-05-22T19:10:08.072Z,21.27
2023-05-22T19:12:34.964Z,26.43
2023-05-22T19:15:01.804Z,21.60
2023-05-22T19:17:28.494Z,25.67
2023-05-22T19:19:55.951Z,25.47
2023-05-22T19:22:24.523Z,29.80
2023-05-22T19:24:51.245Z,27.93
2023-05-22T19:27:17.987Z,26.00
2023-05-22T19:29:44.637Z,32.30
2023-05-22T19:32:11.302Z,18.40
2023-05-22T19:34:38.729Z,26.07
2023-05-22T19:37:05.653Z,21.93
2023-05-22T19:39:32.575Z,17.80
2023-05-22T19:41:59.173Z,26.57
2023-05-22T19:44:26.097Z,20.20
2023-05-22T19:46:52.811Z,25.90
2023-05-22T19:49:19.502Z,22.47
2023-05-22T19:51:46.161Z,26.47
2023-05-22T19:54:13.297Z,30.27
2023-05-22T19:56:39.912Z,19.00
2023-05-22T19:59:06.594Z,21.70
2023-05-22T20:01:33.473Z,18.23
2023-05-22T20:04:01.030Z,21.43
2023-05-22T20:06:31.516Z,26.40
2023-05-22T20:08:58.340Z,22.80
2023-05-22T20:11:24.984Z,23.10
2023-05-22T20:13:54.538Z,32.57
2023-05-22T20:16:21.262Z,27.93
2023-05-22T20:18:48.837Z,26.80
2023-05-22T20:21:15.552Z,24.17
2023-05-22T20:23:42.895Z,25.10
2023-05-22T20:26:09.608Z,19.30
2023-05-22T20:28:36.137Z,20.70
2023-05-22T20:31:02.689Z,22.03
2023-05-22T20:33:29.277Z,17.10
2023-05-22T20:35:55.950Z,20.93
2023-05-22T20:38:22.928Z,17.00
2023-05-22T20:40:49.710Z,20.70
2023-05-22T20:43:18.650Z,20.00
2023-05-22T20:45:46.000Z,21.73
2023-05-22T20:48:13.854Z,23.03
2023-05-22T20:50:41.079Z,28.60
2023-05-22T20:53:08.468Z,27.37
2023-05-22T20:55:35.206Z,26.63
2023-05-22T20:58:01.887Z,28.70
2023-05-22T21:00:28.776Z,23.83
2023-05-22T21:02:58.130Z,23.20
2023-05-22T21:05:26.258Z,24.73
2023-05-22T21:07:54.138Z,23.90
2023-05-22T21:10:20.820Z,21.57
2023-05-22T21:12:47.376Z,22.30
2023-05-22T21:15:14.093Z,22.43
2023-05-22T21:17:40.668Z,19.60
2023-05-22T21:20:08.206Z,19.37
2023-05-22T21:22:34.768Z,26.27
2023-05-22T21:25:01.408Z,22.80
2023-05-22T21:27:28.135Z,21.07
2023-05-22T21:29:55.125Z,25.07
2023-05-22T21:32:21.680Z,23.73
2023-05-22T21:34:48.325Z,33.27
2023-05-22T21:37:14.979Z,20.07
2023-05-22T21:39:41.823Z,26.77
2023-05-22T21:42:08.925Z,26.27
2023-05-22T21:44:35.951Z,23.13
2023-05-22T21:47:02.728Z,20.47
2023-05-22T21:49:29.571Z,20.80
2023-05-22T21:51:56.122Z,23.63
2023-05-22T21:54:22.985Z,25.83
2023-05-22T21:56:49.526Z,20.33
2023-05-22T21:59:16.393Z,19.57
2023-05-22T22:01:43.143Z,22.33
2023-05-22T22:04:09.855Z,28.20
2023-05-22T22:06:37.135Z,19.87
2023-05-22T22:09:03.952Z,21.17
2023-05-22T22:11:30.710Z,16.80
2023-05-22T22:13:57.392Z,16.60
2023-05-22T22:16:24.571Z,19.43
2023-05-22T22:19:00.529Z,24.53
2023-05-22T22:21:28.161Z,17.97
2023-05-22T22:23:54.854Z,19.63
2023-05-22T22:26:21.449Z,19.97
2023-05-22T22:28:48.259Z,21.70
2023-05-22T22:31:15.069Z,29.83
2023-05-22T22:33:41.674Z,22.70
2023-05-22T22:36:09.033Z,23.93
2023-05-22T22:38:35.701Z,20.87
2023-05-22T22:41:04.808Z,18.73
2023-05-22T22:43:31.732Z,25.60
2023-05-22T22:45:58.388Z,21.93
2023-05-22T22:48:25.092Z,23.13
2023-05-22T22:50:52.653Z,19.67
2023-05-22T22:53:19.679Z,14.17
2023-05-22T22:55:48.014Z,20.80
2023-05-22T22:58:14.674Z,16.80
2023-05-22T23:00:41.601Z,26.10
2023-05-22T23:03:08.197Z,21.77
2023-05-22T23:05:34.977Z,29.00
2023-05-22T23:08:02.232Z,28.93
2023-05-22T23:10:29.102Z,20.17
2023-05-22T23:12:56.155Z,24.30
2023-05-22T23:15:23.288Z,19.40
2023-05-22T23:17:51.917Z,28.37
2023-05-22T23:20:18.793Z,20.70
2023-05-22T23:22:45.382Z,20.63
2023-05-22T23:25:11.888Z,20.53
2023-05-22T23:27:39.389Z,23.87
2023-05-22T23:30:08.036Z,26.17
2023-05-22T23:32:34.659Z,25.30
2023-05-22T23:35:01.525Z,29.00
2023-05-22T23:37:28.337Z,19.97
2023-05-22T23:39:55.036Z,19.33
2023-05-22T23:42:21.708Z,21.37
2023-05-22T23:44:48.530Z,15.97
2023-05-22T23:47:16.810Z,21.70
2023-05-22T23:49:43.659Z,18.40
2023-05-22T23:52:12.135Z,20.53
2023-05-22T23:54:38.827Z,22.87
2023-05-22T23:57:05.453Z,19.27
2023-05-22T23:59:32.318Z,28.47
